Sevenpersons, Canada
Current Conditions -  °F | °C
As of 1:00 AM on Sunday 26 Oct 2014 (Local Time) from CYXH Reporting Station
Clear Clear  
Wind Chill: 36°   Ceiling: Unl
Heat Index: 39°   Visibility: 9mi
Dew Point: 36°   Wind: 5mph
Humidity: 87%   Direction: 20°NNE
Pressure: 29.48"   Gusts: NA
Location:  49.87°N, 110.9°W
Report Text: CYXH 260700Z AUTO 02004KT 9SM CLR 04/02 A2948 RMK SLP995
Loading
Personal Weather Stations






























Interactive Weather Map New forecast layout! Learn more

10-Day Weather Forecast

Advertisements
Track Severe Weather on mobile